createdAt,value
2023-02-01T00:01:45.443Z,96.88
2023-02-01T00:04:14.184Z,96.81
2023-02-01T00:06:42.854Z,96.57
2023-02-01T00:09:11.631Z,96.04
2023-02-01T00:11:40.510Z,95.55
2023-02-01T00:14:10.519Z,95.03
2023-02-01T00:16:39.221Z,94.64
2023-02-01T00:19:11.888Z,93.81
2023-02-01T00:21:40.682Z,93.34
2023-02-01T00:24:10.845Z,92.90
2023-02-01T00:26:42.001Z,91.98
2023-02-01T00:29:15.141Z,90.98
2023-02-01T00:31:44.402Z,89.50
2023-02-01T00:34:15.998Z,88.77
2023-02-01T00:36:45.745Z,87.48
2023-02-01T00:39:14.903Z,86.92
2023-02-01T00:41:43.862Z,86.39
2023-02-01T00:44:13.883Z,85.45
2023-02-01T00:46:42.477Z,85.02
2023-02-01T00:49:11.118Z,84.34
2023-02-01T00:51:39.855Z,83.46
2023-02-01T00:54:08.570Z,81.90
2023-02-01T00:56:37.363Z,81.58
2023-02-01T00:59:06.083Z,80.98
2023-02-01T01:01:36.372Z,80.41
2023-02-01T01:04:05.036Z,79.32
2023-02-01T01:06:35.312Z,78.91
2023-02-01T01:09:06.025Z,78.44
2023-02-01T01:11:37.414Z,78.11
2023-02-01T01:14:08.202Z,77.34
2023-02-01T01:16:38.746Z,77.78
2023-02-01T01:19:07.736Z,77.50
2023-02-01T01:21:36.305Z,77.77
2023-02-01T01:24:05.486Z,77.37
2023-02-01T01:26:34.217Z,77.37
2023-02-01T01:29:03.158Z,77.40
2023-02-01T01:31:32.805Z,77.09
2023-02-01T01:34:03.076Z,77.34
2023-02-01T01:36:31.842Z,77.26
2023-02-01T01:39:00.437Z,77.71
2023-02-01T01:41:33.183Z,78.08
2023-02-01T01:44:03.953Z,77.89
2023-02-01T01:46:36.559Z,78.20
2023-02-01T01:49:10.781Z,77.81
2023-02-01T01:51:45.987Z,78.59
2023-02-01T01:54:19.287Z,78.32
2023-02-01T01:56:53.555Z,78.08
2023-02-01T01:59:24.061Z,78.40
2023-02-01T02:01:53.731Z,78.41
2023-02-01T02:04:24.740Z,78.00
2023-02-01T02:07:00.346Z,78.18
2023-02-01T02:09:29.155Z,77.74
2023-02-01T02:11:57.890Z,78.19
2023-02-01T02:14:28.481Z,78.23
2023-02-01T02:17:16.605Z,77.99
2023-02-01T02:20:30.171Z,77.82
2023-02-01T02:23:32.352Z,78.41
2023-02-01T02:26:24.622Z,78.58
2023-02-01T02:29:15.203Z,78.46
2023-02-01T02:32:06.186Z,79.09
2023-02-01T02:34:41.342Z,79.02
2023-02-01T02:37:17.832Z,78.65
2023-02-01T02:39:55.363Z,78.96
2023-02-01T02:42:49.040Z,78.78
2023-02-01T02:45:43.135Z,78.52
2023-02-01T02:48:20.079Z,78.95
2023-02-01T02:51:18.870Z,79.26
2023-02-01T02:54:11.969Z,79.00
2023-02-01T02:56:59.734Z,79.60
2023-02-01T02:59:48.105Z,78.90
2023-02-01T03:02:35.810Z,78.98
2023-02-01T03:05:04.704Z,78.76
2023-02-01T03:07:57.601Z,78.24
2023-02-01T03:10:33.001Z,78.30
2023-02-01T03:13:07.870Z,78.32
2023-02-01T03:15:40.611Z,77.63
2023-02-01T03:18:15.272Z,77.49
2023-02-01T03:20:48.994Z,77.61
2023-02-01T03:23:23.627Z,77.55
2023-02-01T03:25:55.302Z,77.37
2023-02-01T03:28:27.561Z,77.56
2023-02-01T03:30:56.799Z,77.61
2023-02-01T03:33:28.506Z,77.34
2023-02-01T03:36:07.562Z,76.98
2023-02-01T03:38:42.039Z,77.25
2023-02-01T03:41:15.547Z,76.70
2023-02-01T03:43:53.516Z,77.24
2023-02-01T03:46:33.592Z,77.13
2023-02-01T03:49:05.584Z,77.37
2023-02-01T03:51:35.724Z,76.67
2023-02-01T03:54:09.225Z,77.10
2023-02-01T03:56:40.187Z,76.51
2023-02-01T03:59:10.340Z,76.52
2023-02-01T04:01:39.342Z,77.04
2023-02-01T04:04:08.396Z,77.32
2023-02-01T04:06:37.350Z,76.78
2023-02-01T04:09:07.441Z,76.71
2023-02-01T04:11:36.020Z,77.19
2023-02-01T04:14:05.551Z,76.87
2023-02-01T04:16:34.848Z,76.98
2023-02-01T04:19:03.615Z,77.08
2023-02-01T04:21:33.224Z,77.50
2023-02-01T04:24:02.021Z,77.85
2023-02-01T04:26:32.495Z,77.52
2023-02-01T04:29:01.441Z,78.36
2023-02-01T04:31:30.366Z,78.42
2023-02-01T04:33:59.424Z,78.59
2023-02-01T04:36:28.540Z,78.35
2023-02-01T04:38:57.097Z,79.01
2023-02-01T04:41:25.778Z,78.64
2023-02-01T04:43:55.812Z,78.70
2023-02-01T04:46:24.676Z,78.89
2023-02-01T04:48:53.320Z,78.96
2023-02-01T04:51:22.102Z,78.97
2023-02-01T04:53:50.653Z,79.48
2023-02-01T04:56:19.289Z,79.39
2023-02-01T04:58:48.079Z,78.96
2023-02-01T05:01:17.979Z,79.44
2023-02-01T05:03:46.769Z,79.69
2023-02-01T05:06:15.624Z,79.34
2023-02-01T05:08:44.628Z,79.79
2023-02-01T05:11:34.013Z,80.26
2023-02-01T05:14:02.639Z,79.38
2023-02-01T05:16:33.224Z,79.98
2023-02-01T05:19:01.768Z,79.39
2023-02-01T05:21:30.248Z,79.88
2023-02-01T05:24:20.786Z,79.47
2023-02-01T05:26:50.330Z,79.70
2023-02-01T05:29:19.510Z,79.85
2023-02-01T05:31:50.227Z,79.68
2023-02-01T05:34:19.524Z,79.41
2023-02-01T05:36:48.505Z,79.33
2023-02-01T05:39:17.310Z,79.37
2023-02-01T05:41:45.930Z,79.68
2023-02-01T05:44:14.480Z,79.20
2023-02-01T05:46:43.168Z,79.34
2023-02-01T05:49:13.480Z,79.91
2023-02-01T05:51:42.404Z,80.63
2023-02-01T05:54:11.805Z,81.02
2023-02-01T05:56:41.754Z,81.46
2023-02-01T05:59:11.463Z,81.33
2023-02-01T06:01:40.192Z,80.83
2023-02-01T06:04:09.378Z,80.67
2023-02-01T06:06:39.542Z,80.78
2023-02-01T06:09:08.131Z,80.59
2023-02-01T06:11:36.641Z,80.40
2023-02-01T06:14:05.190Z,80.30
2023-02-01T06:16:34.044Z,80.33
2023-02-01T06:19:02.552Z,80.84
2023-02-01T06:21:31.141Z,80.37
2023-02-01T06:24:01.149Z,80.42
2023-02-01T06:26:30.099Z,80.41
2023-02-01T06:28:58.861Z,80.62
2023-02-01T06:31:27.694Z,80.75
2023-02-01T06:33:56.363Z,81.24
2023-02-01T06:36:24.224Z,80.69
2023-02-01T06:38:53.855Z,80.62
2023-02-01T06:41:24.232Z,80.92
2023-02-01T06:43:52.977Z,81.03
2023-02-01T06:46:21.691Z,80.89
2023-02-01T06:48:52.139Z,80.73
2023-02-01T06:51:22.854Z,81.22
2023-02-01T06:53:51.891Z,81.00
2023-02-01T06:56:23.187Z,80.85
2023-02-01T06:58:53.441Z,81.07
2023-02-01T07:01:27.000Z,80.33
2023-02-01T07:03:55.710Z,80.63
2023-02-01T07:06:24.679Z,80.73
2023-02-01T07:08:56.672Z,80.45
2023-02-01T07:11:28.394Z,80.71
2023-02-01T07:13:59.902Z,80.47
2023-02-01T07:16:30.082Z,80.33
2023-02-01T07:19:00.674Z,80.79
2023-02-01T07:21:29.803Z,80.20
2023-02-01T07:23:58.410Z,80.59
2023-02-01T07:26:27.072Z,80.69
2023-02-01T07:28:55.870Z,80.63
2023-02-01T07:31:27.505Z,80.31
2023-02-01T07:33:57.302Z,79.82
2023-02-01T07:36:26.624Z,80.41
2023-02-01T07:38:56.803Z,80.10
2023-02-01T07:41:25.566Z,80.72
2023-02-01T07:43:54.833Z,80.28
2023-02-01T07:46:25.099Z,80.71
2023-02-01T07:48:53.767Z,80.32
2023-02-01T07:51:22.319Z,80.47
2023-02-01T07:53:51.038Z,80.46
2023-02-01T07:56:23.407Z,80.28
2023-02-01T07:58:53.470Z,80.72
2023-02-01T08:01:25.299Z,80.86
2023-02-01T08:03:57.229Z,81.18
2023-02-01T08:06:26.832Z,81.19
2023-02-01T08:08:55.984Z,80.81
2023-02-01T08:11:26.421Z,81.13
2023-02-01T08:13:55.687Z,80.75
2023-02-01T08:16:25.413Z,80.44
2023-02-01T08:18:55.828Z,80.58
2023-02-01T08:21:26.638Z,80.44
2023-02-01T08:23:57.183Z,80.64
2023-02-01T08:26:27.947Z,80.86
2023-02-01T08:28:58.992Z,80.96
2023-02-01T08:31:29.306Z,80.72
2023-02-01T08:34:01.834Z,80.39
2023-02-01T08:36:32.545Z,80.24
2023-02-01T08:39:01.439Z,80.09
2023-02-01T08:41:32.145Z,80.58
2023-02-01T08:44:01.205Z,80.63
2023-02-01T08:46:30.121Z,80.59
2023-02-01T08:49:00.219Z,80.92
2023-02-01T08:51:29.010Z,80.27
2023-02-01T08:53:57.672Z,80.43
2023-02-01T08:56:26.484Z,80.13
2023-02-01T08:58:55.053Z,79.85
2023-02-01T09:01:23.729Z,79.87
2023-02-01T09:03:52.422Z,80.37
2023-02-01T09:06:23.046Z,79.58
2023-02-01T09:08:51.706Z,79.68
2023-02-01T09:11:21.754Z,79.79
2023-02-01T09:13:51.275Z,79.83
2023-02-01T09:16:21.120Z,79.09
2023-02-01T09:18:56.623Z,79.25
2023-02-01T09:21:38.994Z,79.16
2023-02-01T09:24:08.822Z,78.69
2023-02-01T09:26:38.553Z,78.42
2023-02-01T09:29:11.985Z,79.07
2023-02-01T09:31:44.201Z,78.57
2023-02-01T09:34:18.586Z,78.95
2023-02-01T09:36:48.758Z,77.84
2023-02-01T09:39:17.525Z,77.50
2023-02-01T09:41:58.664Z,77.29
2023-02-01T09:44:44.362Z,76.96
2023-02-01T09:47:16.401Z,77.28
2023-02-01T09:49:53.834Z,77.79
2023-02-01T09:52:29.961Z,77.64
2023-02-01T09:55:03.723Z,78.16
2023-02-01T09:57:45.646Z,77.85
2023-02-01T10:00:22.450Z,77.70
2023-02-01T10:02:51.888Z,77.79
2023-02-01T10:05:33.520Z,77.97
2023-02-01T10:08:11.478Z,77.43
2023-02-01T10:10:45.958Z,77.74
2023-02-01T10:13:27.253Z,77.34
2023-02-01T10:16:07.628Z,76.74
2023-02-01T10:18:49.759Z,77.04
2023-02-01T10:21:44.746Z,76.43
2023-02-01T10:24:37.261Z,75.64
2023-02-01T10:27:15.685Z,76.04
2023-02-01T10:29:47.888Z,76.90
2023-02-01T10:32:19.011Z,76.47
2023-02-01T10:34:53.824Z,77.20
2023-02-01T10:37:28.656Z,76.93
2023-02-01T10:40:01.811Z,77.15
2023-02-01T10:42:33.174Z,77.78
2023-02-01T10:45:04.630Z,76.88
2023-02-01T10:47:33.441Z,76.35
2023-02-01T10:50:16.459Z,77.02
2023-02-01T10:52:50.524Z,76.21
2023-02-01T10:55:41.444Z,76.71
2023-02-01T10:58:17.782Z,75.95
2023-02-01T11:00:50.161Z,76.21
2023-02-01T11:03:24.381Z,77.09
2023-02-01T11:05:53.176Z,76.77
2023-02-01T11:08:21.825Z,77.40
2023-02-01T11:11:00.244Z,76.26
2023-02-01T11:13:34.274Z,75.95
2023-02-01T11:16:05.319Z,75.82
2023-02-01T11:18:38.524Z,75.84
2023-02-01T11:21:08.909Z,76.65
2023-02-01T11:23:43.694Z,76.61
2023-02-01T11:26:16.861Z,75.88
2023-02-01T11:28:55.365Z,75.27
2023-02-01T11:31:25.904Z,75.06
2023-02-01T11:34:00.372Z,73.99
2023-02-01T11:36:32.669Z,74.35
2023-02-01T11:39:21.355Z,74.37
2023-02-01T11:42:02.995Z,74.44
2023-02-01T11:44:36.361Z,75.04
2023-02-01T11:47:24.714Z,75.10
2023-02-01T11:49:55.183Z,76.23
2023-02-01T11:52:44.580Z,79.49
2023-02-01T11:55:37.863Z,81.54
2023-02-01T11:58:23.139Z,84.33
2023-02-01T12:01:07.107Z,86.25
2023-02-01T12:04:02.764Z,88.22
2023-02-01T12:06:40.978Z,88.44
2023-02-01T12:09:43.674Z,90.29
2023-02-01T12:12:20.921Z,90.45
2023-02-01T12:15:05.705Z,90.41
2023-02-01T12:17:51.158Z,91.39
2023-02-01T12:20:41.793Z,90.91
2023-02-01T12:23:25.461Z,91.54
2023-02-01T12:26:07.392Z,92.07
2023-02-01T12:28:58.927Z,92.23
2023-02-01T12:31:48.423Z,90.73
2023-02-01T12:34:37.008Z,91.32
2023-02-01T12:37:27.821Z,89.73
2023-02-01T12:40:13.039Z,89.84
2023-02-01T12:42:48.328Z,89.64
2023-02-01T12:45:25.501Z,88.40
2023-02-01T12:47:59.720Z,88.29
2023-02-01T12:50:33.855Z,88.17
2023-02-01T12:53:15.436Z,88.14
2023-02-01T12:55:51.735Z,87.99
2023-02-01T12:58:25.416Z,87.03
2023-02-01T13:01:01.582Z,88.17
2023-02-01T13:03:38.806Z,87.17
2023-02-01T13:06:12.507Z,88.33
2023-02-01T13:08:49.641Z,86.61
2023-02-01T13:11:22.932Z,85.10
2023-02-01T13:14:02.931Z,85.75
2023-02-01T13:16:34.585Z,84.98
2023-02-01T13:19:15.054Z,84.37
2023-02-01T13:21:50.163Z,83.55
2023-02-01T13:24:32.141Z,83.32
2023-02-01T13:27:03.083Z,82.82
2023-02-01T13:29:33.607Z,81.71
2023-02-01T13:32:20.742Z,81.48
2023-02-01T13:35:13.925Z,80.22
2023-02-01T13:38:27.528Z,79.83
2023-02-01T13:41:13.754Z,79.93
2023-02-01T13:43:46.472Z,79.56
2023-02-01T13:46:17.190Z,79.64
2023-02-01T13:48:51.862Z,78.85
2023-02-01T13:51:36.436Z,77.86
2023-02-01T13:54:07.141Z,77.62
2023-02-01T13:56:44.248Z,78.39
2023-02-01T13:59:55.768Z,79.11
2023-02-01T14:02:52.103Z,78.18
2023-02-01T14:06:10.869Z,78.89
2023-02-01T14:08:44.852Z,78.51
2023-02-01T14:11:40.194Z,79.39
2023-02-01T14:14:45.172Z,78.56
2023-02-01T14:17:43.135Z,78.29
2023-02-01T14:20:55.464Z,77.49
2023-02-01T14:23:28.030Z,78.67
2023-02-01T14:26:10.381Z,78.32
2023-02-01T14:28:45.396Z,79.91
2023-02-01T14:31:34.809Z,80.09
2023-02-01T14:34:17.295Z,81.29
2023-02-01T14:36:51.245Z,81.19
2023-02-01T14:39:40.540Z,81.61
2023-02-01T14:42:24.681Z,82.29
2023-02-01T14:44:59.268Z,81.33
2023-02-01T14:47:35.840Z,80.96
2023-02-01T14:50:20.065Z,81.50
2023-02-01T14:52:54.760Z,80.68
2023-02-01T14:55:29.271Z,79.96
2023-02-01T14:58:02.451Z,80.18
2023-02-01T15:00:34.290Z,79.42
2023-02-01T15:03:36.709Z,79.54
2023-02-01T15:06:25.325Z,78.38
2023-02-01T15:08:58.131Z,78.90
2023-02-01T15:11:28.332Z,78.39
2023-02-01T15:13:58.285Z,78.67
2023-02-01T15:16:28.648Z,79.82
2023-02-01T15:19:11.474Z,81.72
2023-02-01T15:21:50.673Z,82.04
2023-02-01T15:24:25.853Z,81.40
2023-02-01T15:26:56.551Z,82.58
2023-02-01T15:29:31.901Z,81.66
2023-02-01T15:32:01.524Z,81.60
2023-02-01T15:34:48.735Z,80.15
2023-02-01T15:37:21.278Z,79.90
2023-02-01T15:40:09.149Z,79.67
2023-02-01T15:42:41.992Z,79.17
2023-02-01T15:45:19.197Z,79.05
2023-02-01T15:47:50.452Z,79.01
2023-02-01T15:50:25.410Z,78.75
2023-02-01T15:52:57.347Z,78.58
2023-02-01T15:55:37.562Z,77.80
2023-02-01T15:58:08.392Z,78.14
2023-02-01T16:00:45.598Z,79.33
2023-02-01T16:03:28.813Z,80.13
2023-02-01T16:05:59.805Z,80.17
2023-02-01T16:08:32.911Z,79.92
2023-02-01T16:11:03.934Z,79.57
2023-02-01T16:13:32.593Z,79.21
2023-02-01T16:16:01.230Z,78.67
2023-02-01T16:18:29.830Z,78.85
2023-02-01T16:20:58.672Z,78.85
2023-02-01T16:23:27.257Z,78.96
2023-02-01T16:25:57.227Z,79.54
2023-02-01T16:28:26.395Z,80.51
2023-02-01T16:30:54.947Z,82.28
2023-02-01T16:33:23.993Z,83.58
2023-02-01T16:35:53.701Z,85.57
2023-02-01T16:38:24.599Z,88.00
2023-02-01T16:40:53.427Z,88.78
2023-02-01T16:43:25.209Z,90.06
2023-02-01T16:46:00.742Z,92.25
2023-02-01T16:48:31.896Z,93.53
2023-02-01T16:51:02.734Z,94.05
2023-02-01T16:53:41.705Z,93.93
2023-02-01T16:56:19.984Z,92.00
2023-02-01T16:58:50.318Z,92.79
2023-02-01T17:01:21.075Z,93.92
2023-02-01T17:03:50.882Z,94.36
2023-02-01T17:06:22.551Z,95.47
2023-02-01T17:08:53.268Z,96.13
2023-02-01T17:11:22.772Z,95.91
2023-02-01T17:13:52.819Z,96.33
2023-02-01T17:16:27.020Z,96.88
2023-02-01T17:19:01.389Z,97.68
2023-02-01T17:21:32.963Z,98.35
2023-02-01T17:24:01.785Z,98.02
2023-02-01T17:26:30.253Z,98.46
2023-02-01T17:29:00.131Z,98.64
2023-02-01T17:31:29.934Z,99.54
2023-02-01T17:33:58.434Z,100.00
2023-02-01T17:36:27.160Z,100.00
2023-02-01T17:39:05.314Z,100.00
2023-02-01T17:41:35.804Z,100.00
2023-02-01T17:44:06.263Z,100.00
2023-02-01T17:46:34.859Z,100.00
2023-02-01T17:49:03.823Z,100.00
2023-02-01T17:51:32.959Z,100.00
2023-02-01T17:54:01.583Z,100.00
2023-02-01T17:56:31.172Z,100.00
2023-02-01T17:59:00.874Z,100.00
2023-02-01T18:01:34.335Z,100.00
2023-02-01T18:04:02.906Z,100.00
2023-02-01T18:06:37.565Z,100.00
2023-02-01T18:09:07.408Z,100.00
2023-02-01T18:11:35.894Z,100.00
2023-02-01T18:14:04.439Z,100.00
2023-02-01T18:16:35.669Z,100.00
2023-02-01T18:19:05.115Z,99.92
2023-02-01T18:21:36.273Z,99.33
2023-02-01T18:24:05.536Z,98.92
2023-02-01T18:26:34.124Z,99.41
2023-02-01T18:29:02.623Z,100.00
2023-02-01T18:31:35.529Z,100.00
2023-02-01T18:34:04.466Z,100.00
2023-02-01T18:36:32.932Z,99.43
2023-02-01T18:39:05.775Z,98.91
2023-02-01T18:41:34.618Z,98.43
2023-02-01T18:44:04.422Z,98.41
2023-02-01T18:46:34.400Z,97.98
2023-02-01T18:49:03.627Z,98.76
2023-02-01T18:51:32.285Z,98.55
2023-02-01T18:54:00.897Z,98.94
2023-02-01T18:56:29.425Z,99.51
2023-02-01T18:59:00.036Z,99.78
2023-02-01T19:01:28.601Z,100.00
2023-02-01T19:04:01.457Z,100.00
2023-02-01T19:06:33.178Z,100.00
2023-02-01T19:09:01.684Z,100.00
2023-02-01T19:11:30.615Z,100.00
2023-02-01T19:13:59.323Z,100.00
2023-02-01T19:16:27.874Z,100.00
2023-02-01T19:18:58.260Z,100.00
2023-02-01T19:21:26.801Z,100.00
2023-02-01T19:23:55.274Z,100.00
2023-02-01T19:26:23.776Z,100.00
2023-02-01T19:28:52.634Z,100.00
2023-02-01T19:31:21.417Z,100.00
2023-02-01T19:33:50.101Z,100.00
2023-02-01T19:36:19.961Z,100.00
2023-02-01T19:38:48.430Z,100.00
2023-02-01T19:41:16.878Z,100.00
2023-02-01T19:43:45.703Z,100.00
2023-02-01T19:46:14.300Z,100.00
2023-02-01T19:48:42.999Z,100.00
2023-02-01T19:51:12.738Z,97.30
2023-02-01T19:53:42.882Z,96.30
2023-02-01T19:56:11.781Z,97.04
2023-02-01T19:58:40.649Z,97.64
2023-02-01T20:01:08.405Z,97.77
2023-02-01T20:03:37.185Z,97.45
2023-02-01T20:06:07.414Z,97.02
2023-02-01T20:08:36.169Z,97.39
2023-02-01T20:11:10.243Z,98.12
2023-02-01T20:13:39.125Z,97.89
2023-02-01T20:16:08.130Z,97.28
2023-02-01T20:18:38.981Z,97.88
2023-02-01T20:21:08.518Z,98.48
2023-02-01T20:23:38.202Z,98.32
2023-02-01T20:26:12.292Z,98.73
2023-02-01T20:28:42.247Z,98.74
2023-02-01T20:31:12.361Z,99.14
2023-02-01T20:33:41.938Z,99.52
2023-02-01T20:36:11.502Z,98.63
2023-02-01T20:38:40.402Z,99.06
2023-02-01T20:41:11.340Z,98.92
2023-02-01T20:43:42.872Z,99.13
2023-02-01T20:46:11.568Z,99.99
2023-02-01T20:48:44.259Z,99.98
2023-02-01T20:51:14.818Z,100.00
2023-02-01T20:53:44.527Z,100.00
2023-02-01T20:56:15.533Z,100.00
2023-02-01T20:58:44.812Z,100.00
2023-02-01T21:01:13.688Z,100.00
2023-02-01T21:03:43.134Z,100.00
2023-02-01T21:06:13.247Z,100.00
2023-02-01T21:08:42.350Z,99.57
2023-02-01T21:11:13.271Z,99.57
2023-02-01T21:13:50.898Z,99.74
2023-02-01T21:16:23.634Z,99.11
2023-02-01T21:18:53.589Z,99.34
2023-02-01T21:21:23.379Z,99.16
2023-02-01T21:23:53.128Z,99.93
2023-02-01T21:26:24.239Z,99.80
2023-02-01T21:28:56.736Z,99.74
2023-02-01T21:31:30.703Z,99.66
2023-02-01T21:34:00.349Z,100.00
2023-02-01T21:36:32.165Z,100.00
2023-02-01T21:39:03.612Z,100.00
2023-02-01T21:41:51.916Z,100.00
2023-02-01T21:44:23.376Z,100.00
2023-02-01T21:46:52.658Z,100.00
2023-02-01T21:49:22.959Z,100.00
2023-02-01T21:51:51.970Z,100.00
2023-02-01T21:54:20.991Z,100.00
2023-02-01T21:56:51.176Z,100.00
2023-02-01T21:59:20.449Z,100.00
2023-02-01T22:01:51.668Z,100.00
2023-02-01T22:04:20.216Z,99.95
2023-02-01T22:06:48.851Z,100.00
2023-02-01T22:09:19.067Z,100.00
2023-02-01T22:11:49.881Z,100.00
2023-02-01T22:14:19.092Z,99.43
2023-02-01T22:16:50.624Z,99.74
2023-02-01T22:19:20.559Z,100.00
2023-02-01T22:21:49.781Z,99.87
2023-02-01T22:24:21.598Z,100.00
2023-02-01T22:26:51.131Z,99.78
2023-02-01T22:29:21.275Z,100.00
2023-02-01T22:31:52.275Z,100.00
2023-02-01T22:34:22.169Z,100.00
2023-02-01T22:36:50.761Z,100.00
2023-02-01T22:39:19.242Z,100.00
2023-02-01T22:41:47.824Z,100.00
2023-02-01T22:44:17.251Z,100.00
2023-02-01T22:46:46.897Z,100.00
2023-02-01T22:49:17.561Z,100.00
2023-02-01T22:51:46.444Z,100.00
2023-02-01T22:54:18.832Z,100.00
2023-02-01T22:56:48.776Z,100.00
2023-02-01T22:59:17.578Z,100.00
2023-02-01T23:02:03.448Z,100.00
2023-02-01T23:04:46.953Z,100.00
2023-02-01T23:07:15.558Z,100.00
2023-02-01T23:09:45.813Z,100.00
2023-02-01T23:12:14.629Z,100.00
2023-02-01T23:14:57.108Z,100.00
2023-02-01T23:17:25.827Z,100.00
2023-02-01T23:19:55.802Z,100.00
2023-02-01T23:22:24.304Z,100.00
2023-02-01T23:24:53.172Z,100.00
2023-02-01T23:27:21.791Z,100.00
2023-02-01T23:29:50.533Z,100.00
2023-02-01T23:32:19.250Z,100.00
2023-02-01T23:34:47.998Z,100.00
2023-02-01T23:37:17.934Z,100.00
2023-02-01T23:39:46.488Z,100.00
2023-02-01T23:42:15.316Z,100.00
2023-02-01T23:44:43.104Z,100.00
2023-02-01T23:47:12.386Z,100.00
2023-02-01T23:49:41.201Z,100.00
2023-02-01T23:52:10.675Z,100.00
2023-02-01T23:54:44.331Z,100.00
2023-02-01T23:57:13.007Z,100.00
2023-02-01T23:59:41.552Z,100.00
